Huntersville, Pennsylvania
Current Conditions -  °F | °C
As of 9:54 AM on Thursday 30 Oct 2014 (Local Time) from KIPT Reporting Station
Scattered Clouds Scattered Clouds  
Wind Chill: 50°   Ceiling: Unl
Heat Index: 50°   Visibility: 10mi
Dew Point: 38°   Wind: 6mph
Humidity: 63%   Direction: 250°WSW
Pressure: 30.04"   Gusts: NA
Location:  41.225°N, 76.7388°W
Report Text: KIPT 301354Z 25005KT 10SM SCT033 10/03 A3004 RMK AO2 SLP174 T01000033
Loading
Personal Weather Stations






























Interactive Weather Map
Tropical Storm Tracking
New forecast layout! Learn more

10-Day Weather Forecast

Advertisements
Track Severe Weather on mobile